Picuris, New Mexico
Current Conditions -  °F | °C
As of 1:55 AM on Monday 20 Oct 2014 (Local Time) from KSKX Reporting Station
Clear Clear  
Wind Chill:   Ceiling: Unl
Heat Index:   Visibility: 10mi
Dew Point:   Wind: 3mph
Humidity: 76%   Direction: 10°N
Pressure: 30.25"   Gusts: NA
Location:  36.1709°N, 105.75°W
Report Text: KSKX 200755Z AUTO 01003KT 10SM CLR 05/01 A3025 RMK AO1
Loading
Personal Weather Stations






























Interactive Weather Map
Tropical Storm Tracking
New forecast layout! Learn more

10-Day Weather Forecast

Advertisements
Track Severe Weather on mobile